createdAt,value
2017-10-23T00:01:12.994Z,100845.48
2017-10-23T00:03:47.821Z,100847.20
2017-10-23T00:06:23.039Z,100843.08
2017-10-23T00:08:58.040Z,100846.61
2017-10-23T00:11:32.789Z,100840.97
2017-10-23T00:14:07.929Z,100839.31
2017-10-23T00:16:43.341Z,100840.44
2017-10-23T00:19:18.450Z,100833.00
2017-10-23T00:21:52.996Z,100836.22
2017-10-23T00:24:28.113Z,100832.09
2017-10-23T00:27:02.984Z,100835.75
2017-10-23T00:29:38.164Z,100831.93
2017-10-23T00:32:13.473Z,100836.31
2017-10-23T00:34:48.408Z,100830.20
2017-10-23T00:37:23.161Z,100837.81
2017-10-23T00:39:58.857Z,100834.22
2017-10-23T00:42:33.186Z,100843.08
2017-10-23T00:45:08.365Z,100840.22
2017-10-23T00:47:43.052Z,100845.14
2017-10-23T00:50:17.773Z,100840.82
2017-10-23T00:52:53.209Z,100841.35
2017-10-23T00:55:27.908Z,100838.62
2017-10-23T00:58:01.780Z,100843.92
2017-10-23T01:00:37.108Z,100841.41
2017-10-23T01:03:11.548Z,100841.57
2017-10-23T01:05:46.447Z,100844.27
2017-10-23T01:08:21.577Z,100850.21
2017-10-23T01:10:56.576Z,100842.66
2017-10-23T01:13:31.412Z,100839.47
2017-10-23T01:16:06.436Z,100844.60
2017-10-23T01:18:41.351Z,100845.05
2017-10-23T01:21:16.216Z,100836.09
2017-10-23T01:23:50.728Z,100849.64
2017-10-23T01:26:24.952Z,100841.94
2017-10-23T01:28:59.415Z,100839.16
2017-10-23T01:31:34.580Z,100833.48
2017-10-23T01:34:09.068Z,100833.80
2017-10-23T01:36:43.907Z,100830.45
2017-10-23T01:39:19.253Z,100840.69
2017-10-23T01:41:54.545Z,100825.39
2017-10-23T01:44:29.144Z,100826.36
2017-10-23T01:47:03.540Z,100839.97
2017-10-23T01:49:38.013Z,100831.77
2017-10-23T01:52:12.389Z,100836.53
2017-10-23T01:54:47.436Z,100837.06
2017-10-23T01:57:22.144Z,100833.59
2017-10-23T01:59:57.996Z,100841.70
2017-10-23T02:02:33.145Z,100842.92
2017-10-23T02:05:07.984Z,100836.72
2017-10-23T02:07:42.624Z,100836.03
2017-10-23T02:10:17.198Z,100842.08
2017-10-23T02:12:52.480Z,100845.55
2017-10-23T02:15:27.420Z,100839.91
2017-10-23T02:18:02.442Z,100841.95
2017-10-23T02:20:37.476Z,100842.48
2017-10-23T02:23:12.312Z,100842.35
2017-10-23T02:25:47.584Z,100853.78
2017-10-23T02:28:22.115Z,100846.95
2017-10-23T02:30:57.440Z,100850.27
2017-10-23T02:33:32.552Z,100845.61
2017-10-23T02:36:07.895Z,100849.02
2017-10-23T02:38:43.133Z,100843.89
2017-10-23T02:41:18.377Z,100853.81
2017-10-23T02:43:54.037Z,100850.65
2017-10-23T02:46:29.405Z,100848.89
2017-10-23T02:49:04.620Z,100855.16
2017-10-23T02:51:39.670Z,100855.81
2017-10-23T02:54:14.276Z,100857.32
2017-10-23T02:56:48.700Z,100853.78
2017-10-23T02:59:23.112Z,100855.85
2017-10-23T03:01:58.112Z,100861.67
2017-10-23T03:04:32.708Z,100860.58
2017-10-23T03:07:07.200Z,100862.52
2017-10-23T03:09:41.915Z,100860.80
2017-10-23T03:12:16.754Z,100865.05
2017-10-23T03:14:51.431Z,100873.23
2017-10-23T03:17:26.212Z,100864.33
2017-10-23T03:20:01.140Z,100870.00
2017-10-23T03:22:36.043Z,100873.73
2017-10-23T03:25:10.801Z,100872.60
2017-10-23T03:27:44.903Z,100869.22
2017-10-23T03:30:19.680Z,100872.45
2017-10-23T03:32:54.481Z,100872.25
2017-10-23T03:35:29.573Z,100872.35
2017-10-23T03:38:05.041Z,100872.32
2017-10-23T03:40:39.651Z,100875.17
2017-10-23T03:43:14.391Z,100882.16
2017-10-23T03:45:49.037Z,100877.95
2017-10-23T03:48:23.555Z,100878.61
2017-10-23T03:50:57.956Z,100882.72
2017-10-23T03:53:32.906Z,100882.78
2017-10-23T03:56:07.521Z,100882.09
2017-10-23T03:58:41.788Z,100887.77
2017-10-23T04:01:16.446Z,100886.56
2017-10-23T04:03:51.668Z,100893.55
2017-10-23T04:06:25.839Z,100884.37
2017-10-23T04:09:00.777Z,100892.02
2017-10-23T04:11:35.205Z,100883.38
2017-10-23T04:14:09.724Z,100889.36
2017-10-23T04:16:44.683Z,100894.55
2017-10-23T04:19:19.436Z,100894.49
2017-10-23T04:21:54.248Z,100899.75
2017-10-23T04:24:28.703Z,100900.81
2017-10-23T04:27:03.577Z,100893.92
2017-10-23T04:29:38.411Z,100896.94
2017-10-23T04:32:13.432Z,100896.59
2017-10-23T04:34:48.920Z,100906.11
2017-10-23T04:37:23.288Z,100903.42
2017-10-23T04:39:58.093Z,100906.36
2017-10-23T04:42:32.596Z,100909.93
2017-10-23T04:45:07.693Z,100906.55
2017-10-23T04:47:42.628Z,100904.70
2017-10-23T04:50:16.948Z,100907.33
2017-10-23T04:52:51.285Z,100900.78
2017-10-23T04:55:26.162Z,100901.16
2017-10-23T04:58:01.034Z,100898.53
2017-10-23T05:00:35.554Z,100906.67
2017-10-23T05:03:09.874Z,100905.70
2017-10-23T05:05:44.896Z,100905.14
2017-10-23T05:08:19.952Z,100908.80
2017-10-23T05:10:54.667Z,100904.89
2017-10-23T05:13:29.075Z,100904.20
2017-10-23T05:16:04.338Z,100917.58
2017-10-23T05:18:38.964Z,100898.53
2017-10-23T05:21:13.848Z,100909.21
2017-10-23T05:23:48.801Z,100918.08
2017-10-23T05:26:23.752Z,100920.59
2017-10-23T05:28:58.588Z,100917.86
2017-10-23T05:31:33.324Z,100925.34
2017-10-23T05:34:08.065Z,100925.56
2017-10-23T05:36:42.860Z,100924.06
2017-10-23T05:39:17.595Z,100919.86
2017-10-23T05:41:52.643Z,100923.18
2017-10-23T05:44:27.949Z,100914.47
2017-10-23T05:47:02.619Z,100923.56
2017-10-23T05:49:37.051Z,100923.84
2017-10-23T05:52:12.068Z,100921.37
2017-10-23T05:54:46.939Z,100931.83
2017-10-23T05:57:21.740Z,100927.41
2017-10-23T05:59:56.554Z,100933.98
2017-10-23T06:02:31.402Z,100939.03
2017-10-23T06:05:06.180Z,100940.35
2017-10-23T06:07:41.057Z,100945.45
2017-10-23T06:10:15.861Z,100954.92
2017-10-23T06:12:50.860Z,100943.02
2017-10-23T06:15:25.441Z,100957.27
2017-10-23T06:18:00.145Z,100957.48
2017-10-23T06:20:34.885Z,100949.41
2017-10-23T06:23:09.670Z,100956.14
2017-10-23T06:25:44.565Z,100959.02
2017-10-23T06:28:19.710Z,100962.87
2017-10-23T06:30:54.320Z,100963.31
2017-10-23T06:33:28.640Z,100959.81
2017-10-23T06:36:03.629Z,100965.67
2017-10-23T06:38:38.398Z,100965.20
2017-10-23T06:41:12.445Z,100968.08
2017-10-23T06:43:46.633Z,100980.17
2017-10-23T06:46:21.280Z,100976.73
2017-10-23T06:48:55.986Z,100970.45
2017-10-23T06:51:31.341Z,100974.81
2017-10-23T06:54:05.559Z,100981.18
2017-10-23T06:56:40.277Z,100987.80
2017-10-23T06:59:15.993Z,100989.55
2017-10-23T07:01:50.981Z,100988.42
2017-10-23T07:04:25.761Z,100993.96
2017-10-23T07:07:00.542Z,100989.52
2017-10-23T07:09:35.442Z,100990.67
2017-10-23T07:12:09.769Z,100993.16
2017-10-23T07:14:43.998Z,100989.45
2017-10-23T07:17:18.976Z,100988.14
2017-10-23T07:19:53.072Z,100994.84
2017-10-23T07:22:27.414Z,100999.73
2017-10-23T07:25:02.399Z,100999.89
2017-10-23T07:27:37.189Z,100992.12
2017-10-23T07:30:12.157Z,100992.30
2017-10-23T07:32:46.337Z,100988.86
2017-10-23T07:35:21.090Z,100990.39
2017-10-23T07:37:57.117Z,100990.39
2017-10-23T07:40:31.657Z,100995.66
2017-10-23T07:43:06.312Z,101002.46
2017-10-23T07:45:41.076Z,101008.10
2017-10-23T07:48:15.592Z,100999.86
2017-10-23T07:50:50.328Z,101002.02
2017-10-23T07:53:25.312Z,101005.12
2017-10-23T07:56:00.289Z,101005.25
2017-10-23T07:58:35.045Z,101004.03
2017-10-23T08:01:09.648Z,101006.28
2017-10-23T08:03:44.028Z,101006.78
2017-10-23T08:06:19.060Z,101007.73
2017-10-23T08:08:53.957Z,101014.41
2017-10-23T08:11:28.328Z,101017.13
2017-10-23T08:14:03.400Z,101009.58
2017-10-23T08:16:38.284Z,101012.55
2017-10-23T08:19:13.197Z,101021.39
2017-10-23T08:21:48.107Z,101006.16
2017-10-23T08:24:22.737Z,101010.01
2017-10-23T08:26:57.767Z,100999.16
2017-10-23T08:29:32.223Z,101008.60
2017-10-23T08:32:07.052Z,101009.22
2017-10-23T08:34:41.760Z,101008.77
2017-10-23T08:37:16.419Z,101015.11
2017-10-23T08:39:51.384Z,101005.53
2017-10-23T08:42:26.733Z,101018.86
2017-10-23T08:45:01.712Z,101009.71
2017-10-23T08:47:36.259Z,101013.47
2017-10-23T08:50:10.325Z,101007.16
2017-10-23T08:52:44.576Z,101011.48
2017-10-23T08:55:18.881Z,101001.93
2017-10-23T08:57:54.081Z,101002.84
2017-10-23T09:00:28.556Z,101010.16
2017-10-23T09:03:03.592Z,101007.70
2017-10-23T09:05:38.565Z,101012.16
2017-10-23T09:08:13.290Z,101008.83
2017-10-23T09:10:48.333Z,101011.19
2017-10-23T09:13:22.842Z,101011.59
2017-10-23T09:15:57.737Z,101010.52
2017-10-23T09:18:32.249Z,101008.55
2017-10-23T09:21:07.216Z,101006.66
2017-10-23T09:23:41.800Z,101012.78
2017-10-23T09:26:16.912Z,101008.14
2017-10-23T09:28:51.648Z,101013.88
2017-10-23T09:31:26.564Z,101009.83
2017-10-23T09:34:01.476Z,101011.09
2017-10-23T09:36:36.127Z,101014.27
2017-10-23T09:52:11.304Z,101034.58
2017-10-23T09:54:46.267Z,101032.12
2017-10-23T09:57:21.140Z,101037.98
2017-10-23T09:59:55.873Z,118681.03
2017-10-23T10:02:30.936Z,118681.03
2017-10-23T10:05:06.317Z,118681.03
2017-10-23T10:07:41.084Z,118681.03
2017-10-23T10:10:15.872Z,118681.03
2017-10-23T10:12:50.813Z,118681.03
2017-10-23T10:15:25.837Z,118681.03
2017-10-23T10:18:01.084Z,118681.03
2017-10-23T10:20:36.529Z,118681.03
2017-10-23T10:23:11.121Z,118681.03
2017-10-23T10:25:46.744Z,118681.03
2017-10-23T10:28:21.796Z,118681.03
2017-10-23T10:30:56.545Z,118681.03
2017-10-23T10:33:31.493Z,118681.03
2017-10-23T10:36:06.294Z,118681.03
2017-10-23T10:38:41.529Z,118681.03
2017-10-23T10:41:15.931Z,118681.03
2017-10-23T10:43:50.820Z,118681.03
2017-10-23T10:46:25.489Z,118681.03
2017-10-23T10:49:00.421Z,118681.03
2017-10-23T10:51:35.358Z,118681.03
2017-10-23T10:54:10.257Z,118681.03
2017-10-23T10:56:45.276Z,118681.03
2017-10-23T10:59:20.046Z,118681.03
2017-10-23T11:01:54.237Z,118681.03
2017-10-23T11:04:29.214Z,118681.03
2017-10-23T11:07:04.053Z,118681.03
2017-10-23T11:09:38.805Z,118681.03
2017-10-23T11:12:13.488Z,118681.03
2017-10-23T11:14:48.413Z,118681.03
2017-10-23T11:17:23.048Z,118681.03
2017-10-23T11:19:57.869Z,118681.03
2017-10-23T11:22:32.777Z,118681.03
2017-10-23T11:25:07.724Z,118681.03
2017-10-23T11:27:42.569Z,118681.03
2017-10-23T11:30:17.302Z,118681.03
2017-10-23T11:32:51.993Z,118681.03
2017-10-23T11:35:26.458Z,118681.03
2017-10-23T11:38:01.444Z,118681.03
2017-10-23T11:40:37.306Z,118681.03
2017-10-23T11:43:12.113Z,118681.03
2017-10-23T11:45:46.968Z,118681.03
2017-10-23T11:48:21.715Z,118681.03
2017-10-23T11:50:56.320Z,118681.03
2017-10-23T11:53:31.145Z,118681.03
2017-10-23T11:56:07.017Z,118681.03
2017-10-23T11:58:41.805Z,118681.03
2017-10-23T12:01:16.636Z,118681.03
2017-10-23T12:03:51.388Z,118681.03
2017-10-23T12:06:26.652Z,118681.03
2017-10-23T12:09:01.214Z,118681.03
2017-10-23T12:11:36.097Z,118681.03
2017-10-23T12:14:11.128Z,118681.03
2017-10-23T12:16:46.075Z,118681.03
2017-10-23T12:19:20.860Z,118681.03
2017-10-23T12:21:55.845Z,118681.03
2017-10-23T12:24:30.329Z,118681.03
2017-10-23T12:27:04.788Z,118681.03
2017-10-23T12:29:39.985Z,118681.03
2017-10-23T12:32:14.436Z,118681.03
2017-10-23T12:34:49.405Z,118681.03
2017-10-23T12:37:24.219Z,118681.03
2017-10-23T12:39:58.963Z,118681.03
2017-10-23T12:42:33.309Z,118681.03
2017-10-23T12:45:08.512Z,118681.03
2017-10-23T12:47:43.237Z,118681.03
2017-10-23T12:50:17.669Z,118681.03
2017-10-23T12:52:52.693Z,118681.03
2017-10-23T12:55:28.315Z,118681.03
2017-10-23T12:58:03.473Z,118681.03
2017-10-23T13:00:37.980Z,118681.03
2017-10-23T13:03:12.989Z,118681.03
2017-10-23T13:05:47.804Z,118681.03
2017-10-23T13:08:23.415Z,118681.03
2017-10-23T13:10:57.820Z,118681.03
2017-10-23T13:13:32.746Z,118681.03
2017-10-23T13:16:07.703Z,118681.03
2017-10-23T13:18:42.480Z,118681.03
2017-10-23T13:21:17.280Z,118681.03
2017-10-23T13:23:52.168Z,118681.03
2017-10-23T13:26:26.641Z,118681.03
2017-10-23T13:29:01.247Z,118681.03
2017-10-23T13:31:35.820Z,118681.03
2017-10-23T13:34:10.849Z,118681.03
2017-10-23T13:36:45.733Z,118681.03
2017-10-23T13:39:20.008Z,118681.03
2017-10-23T13:41:54.900Z,118681.03
2017-10-23T13:44:29.772Z,118681.03
2017-10-23T13:47:05.002Z,118681.03
2017-10-23T13:49:39.545Z,118681.03
2017-10-23T13:52:14.277Z,118681.03
2017-10-23T13:54:49.745Z,118681.03
2017-10-23T13:57:24.472Z,118681.03
2017-10-23T13:59:59.317Z,118681.03
2017-10-23T14:02:34.208Z,118681.03
2017-10-23T14:05:08.949Z,118681.03
2017-10-23T14:07:43.903Z,118681.03
2017-10-23T14:10:18.529Z,118681.03
2017-10-23T14:12:53.348Z,118681.03
2017-10-23T14:15:28.070Z,118681.03
2017-10-23T14:18:02.932Z,118681.03
2017-10-23T14:20:36.981Z,118681.03
2017-10-23T14:23:11.908Z,118681.03
2017-10-23T14:25:46.640Z,118681.03
2017-10-23T14:28:21.724Z,118681.03
2017-10-23T14:30:55.930Z,118681.03
2017-10-23T14:33:30.615Z,118681.03
2017-10-23T14:36:05.460Z,118681.03
2017-10-23T14:38:40.161Z,118681.03
2017-10-23T14:41:15.181Z,118681.03
2017-10-23T14:43:49.457Z,118681.03
2017-10-23T14:46:24.400Z,118681.03
2017-10-23T14:48:59.853Z,118681.03
2017-10-23T14:51:34.644Z,118681.03
2017-10-23T14:54:09.340Z,118681.03
2017-10-23T14:56:44.292Z,118681.03
2017-10-23T14:59:19.257Z,118681.03
2017-10-23T15:01:53.644Z,118681.03
2017-10-23T15:04:28.169Z,118681.03
2017-10-23T15:07:02.749Z,118681.03
2017-10-23T15:09:37.345Z,118681.03
2017-10-23T15:12:12.576Z,118681.03
2017-10-23T15:14:46.800Z,118681.03
2017-10-23T15:17:21.337Z,118681.03
2017-10-23T15:19:55.872Z,118681.03
2017-10-23T15:22:31.140Z,118681.03
2017-10-23T15:25:05.864Z,118681.03
2017-10-23T15:27:40.600Z,118681.03
2017-10-23T15:30:15.497Z,118681.03
2017-10-23T15:32:50.233Z,118681.03
2017-10-23T15:35:24.804Z,118681.03
2017-10-23T15:37:59.711Z,118681.03
2017-10-23T15:40:34.536Z,118681.03
2017-10-23T15:43:09.345Z,118681.03
2017-10-23T15:45:43.792Z,118681.03
2017-10-23T15:48:18.820Z,118681.03
2017-10-23T15:50:53.717Z,118681.03
2017-10-23T15:53:28.782Z,118681.03
2017-10-23T15:56:03.868Z,118681.03
2017-10-23T15:58:39.228Z,118681.03
2017-10-23T16:01:14.137Z,118681.03
2017-10-23T16:03:48.844Z,118681.03
2017-10-23T16:06:23.640Z,118681.03
2017-10-23T16:08:58.369Z,118681.03
2017-10-23T16:11:33.348Z,118681.03
2017-10-23T16:14:07.412Z,118681.03
2017-10-23T16:16:42.421Z,118681.03
2017-10-23T16:19:17.188Z,118681.03
2017-10-23T16:21:52.361Z,118681.03
2017-10-23T16:24:26.764Z,118681.03
2017-10-23T16:27:01.784Z,118681.03
2017-10-23T16:29:36.151Z,118681.03
2017-10-23T16:32:11.276Z,118681.03
2017-10-23T16:34:45.392Z,118681.03
2017-10-23T16:37:19.808Z,118681.03
2017-10-23T16:39:54.658Z,118681.03
2017-10-23T16:42:30.263Z,118681.03
2017-10-23T16:45:05.192Z,118681.03
2017-10-23T16:47:40.116Z,118681.03
2017-10-23T16:50:14.900Z,118681.03
2017-10-23T16:52:50.236Z,118681.03
2017-10-23T16:55:24.810Z,118681.03
2017-10-23T16:57:59.936Z,118681.03
2017-10-23T17:00:34.123Z,118681.03
2017-10-23T17:03:09.036Z,118681.03
2017-10-23T17:05:43.747Z,118681.03
2017-10-23T17:08:18.605Z,118681.03
2017-10-23T17:10:53.247Z,118681.03
2017-10-23T17:13:28.448Z,118681.03
2017-10-23T17:16:03.412Z,118681.03
2017-10-23T17:18:38.153Z,118681.03
2017-10-23T17:21:12.700Z,118681.03
2017-10-23T17:23:47.624Z,118681.03
2017-10-23T17:26:22.256Z,118681.03
2017-10-23T17:28:57.356Z,118681.03
2017-10-23T17:31:32.108Z,118681.03
2017-10-23T17:34:06.976Z,118681.03
2017-10-23T17:36:41.816Z,118681.03
2017-10-23T17:39:16.248Z,118681.03
2017-10-23T17:41:51.276Z,118681.03
2017-10-23T17:44:25.991Z,118681.03
2017-10-23T17:47:00.890Z,118681.03
2017-10-23T17:49:35.625Z,118681.03
2017-10-23T17:52:10.400Z,118681.03
2017-10-23T17:54:45.324Z,118681.03
2017-10-23T17:57:20.225Z,118681.03
2017-10-23T17:59:55.058Z,118681.03
2017-10-23T18:02:29.832Z,118681.03
2017-10-23T18:05:04.326Z,118681.03
2017-10-23T18:07:39.331Z,118681.03
2017-10-23T18:10:13.777Z,118681.03
2017-10-23T18:12:49.144Z,118681.03
2017-10-23T18:15:23.756Z,118681.03
2017-10-23T18:17:58.630Z,118681.03
2017-10-23T18:20:34.260Z,118681.03
2017-10-23T18:23:09.184Z,118681.03
2017-10-23T18:25:43.720Z,118681.03
2017-10-23T18:28:18.601Z,118681.03
2017-10-23T18:30:53.340Z,118681.03
2017-10-23T18:33:29.308Z,118681.03
2017-10-23T18:36:03.980Z,118681.03
2017-10-23T18:38:40.052Z,118681.03
2017-10-23T18:41:14.560Z,118681.03
2017-10-23T18:43:49.453Z,118681.03
2017-10-23T18:46:24.520Z,118681.03
2017-10-23T18:48:59.131Z,118681.03
2017-10-23T18:51:34.377Z,118681.03
2017-10-23T18:54:09.348Z,118681.03
2017-10-23T18:56:43.980Z,118681.03
2017-10-23T18:59:19.210Z,118681.03
2017-10-23T19:01:53.916Z,118681.03
2017-10-23T19:04:28.857Z,118681.03
2017-10-23T19:07:03.804Z,118681.03
2017-10-23T19:09:38.645Z,118681.03
2017-10-23T19:12:13.451Z,118681.03
2017-10-23T19:14:48.377Z,118681.03
2017-10-23T19:17:23.379Z,118681.03
2017-10-23T19:19:58.641Z,118681.03
2017-10-23T19:22:34.219Z,118681.03
2017-10-23T19:25:08.987Z,118681.03
2017-10-23T19:27:43.620Z,118681.03
2017-10-23T19:30:18.664Z,118681.03
2017-10-23T19:32:53.296Z,118681.03
2017-10-23T19:45:17.406Z,101499.84
2017-10-23T19:47:52.530Z,101506.33
2017-10-23T19:50:27.324Z,101515.20
2017-10-23T19:53:02.044Z,101521.20
2017-10-23T19:55:37.412Z,101522.30
2017-10-23T19:58:12.553Z,101536.20
2017-10-23T20:00:47.380Z,101532.39
2017-10-23T20:03:22.504Z,101532.67
2017-10-23T20:05:57.692Z,101531.99
2017-10-23T20:08:32.900Z,101542.80
2017-10-23T20:11:08.549Z,101541.54
2017-10-23T20:13:43.444Z,101540.75
2017-10-23T20:16:18.321Z,101545.83
2017-10-23T20:18:53.128Z,101552.00
2017-10-23T20:21:27.874Z,101554.20
2017-10-23T20:24:02.992Z,101557.61
2017-10-23T20:26:37.918Z,101564.41
2017-10-23T20:29:13.767Z,101564.82
2017-10-23T20:31:48.461Z,101574.45
2017-10-23T20:34:23.519Z,101575.03
2017-10-23T20:36:58.292Z,101574.83
2017-10-23T20:39:33.312Z,101578.29
2017-10-23T20:42:08.071Z,101574.56
2017-10-23T20:44:43.265Z,101579.34
2017-10-23T20:47:18.156Z,101577.27
2017-10-23T20:49:53.218Z,101583.13
2017-10-23T20:52:28.069Z,101582.66
2017-10-23T20:55:03.296Z,101590.64
2017-10-23T20:57:38.135Z,101596.16
2017-10-23T21:00:13.136Z,101595.87
2017-10-23T21:02:48.051Z,101600.92
2017-10-23T21:05:22.765Z,101595.28
2017-10-23T21:07:57.685Z,101597.73
2017-10-23T21:10:32.599Z,101604.27
2017-10-23T21:13:07.264Z,101603.89
2017-10-23T21:15:42.148Z,101605.00
2017-10-23T21:18:17.551Z,101599.28
2017-10-23T21:20:52.238Z,101609.30
2017-10-23T21:23:27.298Z,101607.67
2017-10-23T21:26:02.531Z,101603.89
2017-10-23T21:28:37.409Z,101606.59
2017-10-23T21:31:12.292Z,101612.70
2017-10-23T21:33:47.140Z,101610.64
2017-10-23T21:36:21.828Z,101604.53
2017-10-23T21:38:56.595Z,101611.87
2017-10-23T21:41:31.299Z,101609.11
2017-10-23T21:44:06.376Z,101615.98
2017-10-23T22:00:09.884Z,101616.83
2017-10-23T22:02:45.016Z,101609.34
2017-10-23T22:05:19.400Z,101623.75
2017-10-23T22:07:53.937Z,101623.44
2017-10-23T22:10:28.627Z,101624.46
2017-10-23T22:13:03.244Z,101631.27
2017-10-23T22:15:37.910Z,101636.67
2017-10-23T22:18:13.453Z,101631.97
2017-10-23T22:20:48.210Z,101640.72
2017-10-23T22:23:22.998Z,101629.09
2017-10-23T22:25:58.747Z,101637.84
2017-10-23T22:28:33.517Z,101637.89
2017-10-23T22:31:08.212Z,101641.83
2017-10-23T22:33:42.901Z,101641.19
2017-10-23T22:36:17.507Z,101649.20
2017-10-23T22:38:52.188Z,101651.72
2017-10-23T22:41:26.917Z,101647.84
2017-10-23T22:44:01.708Z,101647.22
2017-10-23T22:46:36.684Z,101659.04
2017-10-23T22:49:11.409Z,101655.30
2017-10-23T22:51:46.910Z,101654.45
2017-10-23T22:54:21.591Z,101652.47
2017-10-23T22:56:56.437Z,101651.48
2017-10-23T22:59:30.971Z,101649.51
2017-10-23T23:02:05.871Z,101646.59
2017-10-23T23:04:40.601Z,101640.41
2017-10-23T23:07:15.310Z,101644.48
2017-10-23T23:09:49.675Z,101645.67
2017-10-23T23:12:24.457Z,101640.06
2017-10-23T23:14:59.209Z,101646.83
2017-10-23T23:17:33.863Z,101648.80
2017-10-23T23:20:08.449Z,101650.34
2017-10-23T23:22:43.184Z,101653.09
2017-10-23T23:25:17.686Z,101644.92
2017-10-23T23:27:52.449Z,101662.77
2017-10-23T23:30:27.192Z,101664.36
2017-10-23T23:33:01.777Z,101668.41
2017-10-23T23:35:36.537Z,101676.53
2017-10-23T23:38:11.247Z,101671.66
2017-10-23T23:40:46.004Z,101665.45
2017-10-23T23:43:20.772Z,101670.09
2017-10-23T23:45:55.463Z,101659.19
2017-10-23T23:48:30.080Z,101661.23
2017-10-23T23:51:05.009Z,101672.84
2017-10-23T23:53:39.540Z,101670.14
2017-10-23T23:56:14.284Z,101673.63
2017-10-23T23:58:49.276Z,101674.52
